Time;durP1;ratioP1;P1;durP2;ratioP2;P2;SDS_P1;SDS_P2;PMS_P1;PMS_P2;Temp;Humidity;BMP_temperature;BMP_pressure;BME280_temperature;BME280_humidity;BME280_pressure;Samples;Min_cycle;Max_cycle;Signal;HPM_P1;HPM_P2
2023/02/14 00:01:32;;;;;;;58.57;38.10;;;10.80;1.00;;;;;;5034764;28;20387;-49
2023/02/14 00:03:59;;;;;;;62.20;40.27;;;10.70;1.00;;;;;;5030478;28;20030;-52
2023/02/14 00:06:26;;;;;;;60.77;40.80;;;10.70;1.00;;;;;;5030229;28;20042;-52
2023/02/14 00:08:53;;;;;;;55.80;39.53;;;10.70;1.00;;;;;;5035680;28;20036;-52
2023/02/14 00:11:19;;;;;;;63.63;42.37;;;10.70;1.00;;;;;;5034064;28;20510;-52
2023/02/14 00:16:30;;;;;;;59.20;40.70;;;10.70;1.00;;;;;;5042321;28;20036;-52
2023/02/14 00:19:02;;;;;;;62.23;42.27;;;10.60;1.00;;;;;;5029175;28;20026;-50
2023/02/14 00:21:34;;;;;;;61.30;41.77;;;10.60;1.00;;;;;;5030796;28;20471;-52
2023/02/14 00:24:00;;;;;;;54.83;39.23;;;10.60;1.00;;;;;;5033617;28;20479;-48
2023/02/14 00:26:26;;;;;;;60.27;40.17;;;10.60;1.00;;;;;;5033875;28;20033;-49
2023/02/14 00:28:52;;;;;;;59.03;40.23;;;10.60;1.00;;;;;;5031617;28;20822;-49
2023/02/14 00:31:17;;;;;;;66.03;42.43;;;10.60;1.00;;;;;;5034480;28;20021;-50
2023/02/14 00:33:43;;;;;;;63.53;41.63;;;10.50;1.00;;;;;;5034220;28;20529;-49
2023/02/14 00:36:09;;;;;;;64.03;40.23;;;10.50;1.00;;;;;;5032479;28;20021;-50
2023/02/14 00:38:35;;;;;;;55.67;39.47;;;10.50;1.00;;;;;;5037017;28;20052;-51
2023/02/14 00:41:01;;;;;;;60.93;41.20;;;10.50;1.00;;;;;;5034840;28;20029;-48
2023/02/14 00:43:27;;;;;;;58.67;39.00;;;10.50;1.00;;;;;;5035679;28;20505;-47
2023/02/14 00:45:52;;;;;;;67.83;40.70;;;10.40;1.00;;;;;;5038728;28;20033;-49
2023/02/14 00:48:18;;;;;;;61.47;39.93;;;10.50;1.00;;;;;;5047881;28;20041;-49
2023/02/14 00:50:47;;;;;;;65.37;40.90;;;10.50;1.00;;;;;;5029350;28;20057;-49
2023/02/14 00:53:13;;;;;;;62.00;42.50;;;10.40;1.00;;;;;;5034481;28;20057;-51
2023/02/14 00:55:38;;;;;;;60.80;39.63;;;10.50;1.00;;;;;;5040109;28;20090;-49
2023/02/14 00:58:04;;;;;;;58.80;40.10;;;10.40;1.00;;;;;;5043490;28;20041;-50
2023/02/14 01:00:30;;;;;;;59.67;41.27;;;10.40;1.00;;;;;;5040386;28;20506;-48
2023/02/14 01:02:56;;;;;;;60.30;40.17;;;10.40;1.00;;;;;;5041380;28;20037;-48
2023/02/14 01:05:21;;;;;;;65.20;42.23;;;10.40;1.00;;;;;;5034724;28;20538;-50
2023/02/14 01:07:48;;;;;;;63.70;41.10;;;10.40;1.00;;;;;;5033847;28;20037;-48
2023/02/14 01:10:13;;;;;;;63.77;41.30;;;10.40;1.00;;;;;;5040936;28;20382;-47
2023/02/14 01:12:39;;;;;;;62.37;41.50;;;10.40;1.00;;;;;;5034225;28;20119;-48
2023/02/14 01:15:05;;;;;;;59.07;40.13;;;10.40;1.00;;;;;;5032529;28;20044;-48
2023/02/14 01:17:30;;;;;;;59.83;41.67;;;10.40;1.00;;;;;;5044865;28;20113;-47
2023/02/14 01:19:56;;;;;;;60.40;40.00;;;10.40;1.00;;;;;;5040832;28;20043;-49
2023/02/14 01:22:22;;;;;;;67.27;43.23;;;10.40;1.00;;;;;;5036527;28;20108;-47
2023/02/14 01:24:47;;;;;;;62.70;40.23;;;10.40;1.00;;;;;;5037097;28;20029;-49
2023/02/14 01:27:13;;;;;;;60.73;39.53;;;10.40;1.00;;;;;;5040728;28;20026;-48
2023/02/14 01:29:38;;;;;;;60.97;39.77;;;10.30;1.00;;;;;;5037578;28;20022;-49
2023/02/14 01:32:04;;;;;;;64.93;38.90;;;10.30;1.00;;;;;;5033957;28;20030;-48
2023/02/14 01:34:30;;;;;;;60.30;40.20;;;10.30;1.00;;;;;;5041018;28;20491;-48
2023/02/14 01:36:55;;;;;;;60.33;39.73;;;10.30;1.00;;;;;;5037031;28;20558;-48
2023/02/14 01:39:21;;;;;;;59.23;37.90;;;10.30;1.00;;;;;;5033013;28;20078;-50
2023/02/14 01:41:47;;;;;;;58.50;39.23;;;10.30;1.00;;;;;;5033471;28;20371;-52
2023/02/14 01:44:13;;;;;;;62.33;38.60;;;10.30;1.00;;;;;;5034830;28;20160;-47
2023/02/14 01:46:40;;;;;;;58.57;38.30;;;10.40;1.00;;;;;;5045944;28;20108;-48
2023/02/14 01:49:19;;;;;;;58.00;39.33;;;10.30;1.00;;;;;;5026553;28;20083;-50
2023/02/14 01:52:17;;;;;;;60.13;38.90;;;10.30;1.00;;;;;;5020387;28;20030;-47
2023/02/14 01:55:07;;;;;;;59.77;40.30;;;10.40;1.00;;;;;;5033248;28;20133;-47
2023/02/14 01:57:48;;;;;;;60.00;41.03;;;10.30;1.00;;;;;;5025690;28;20032;-46
2023/02/14 02:03:00;;;;;;;55.38;40.88;;;10.20;1.00;;;;;;5046042;28;20036;-47
2023/02/14 02:05:26;;;;;;;62.27;41.23;;;10.20;1.00;;;;;;5044947;28;20045;-47
2023/02/14 02:07:56;;;;;;;64.37;41.53;;;10.20;1.00;;;;;;5039501;28;20092;-47
2023/02/14 02:10:22;;;;;;;61.10;40.43;;;10.20;1.00;;;;;;5032654;28;20471;-48
2023/02/14 02:12:51;;;;;;;60.50;39.53;;;10.10;1.00;;;;;;5032923;28;20040;-48
2023/02/14 02:15:17;;;;;;;59.63;40.20;;;10.20;1.00;;;;;;5045713;28;20111;-46
2023/02/14 02:18:01;;;;;;;62.83;40.50;;;10.10;1.00;;;;;;5047520;28;20486;-47
2023/02/14 02:21:01;;;;;;;62.33;40.90;;;10.10;1.00;;;;;;5033514;28;20055;-47
2023/02/14 02:24:22;;;;;;;62.57;42.13;;;10.10;1.00;;;;;;4990244;28;20058;-48
2023/02/14 02:27:06;;;;;;;63.00;41.17;;;10.00;1.00;;;;;;5009266;28;20091;-48
2023/02/14 02:30:04;;;;;;;63.95;41.90;;;10.00;1.00;;;;;;5021053;28;20467;-50
2023/02/14 02:32:51;;;;;;;61.43;42.20;;;9.90;1.00;;;;;;5024067;28;20024;-49
2023/02/14 02:35:38;;;;;;;63.90;42.90;;;9.90;1.00;;;;;;5029291;28;20068;-48
2023/02/14 02:38:22;;;;;;;66.43;42.00;;;9.90;1.00;;;;;;5031784;28;20017;-48
2023/02/14 02:41:17;;;;;;;65.67;41.87;;;9.80;1.00;;;;;;5032204;28;20025;-49
2023/02/14 02:43:54;;;;;;;64.70;43.40;;;9.80;1.00;;;;;;5033147;28;20029;-52
2023/02/14 02:53:01;;;;;;;60.60;41.47;;;9.70;1.00;;;;;;5031047;28;20044;-47
2023/02/14 02:55:03;;;;;;;;;;;9.70;1.00;;;;;;5027492;28;20037;-47
2023/02/14 02:57:37;;;;;;;63.23;39.90;;;9.70;1.00;;;;;;5041405;28;20001;-47
2023/02/14 03:00:06;;;;;;;58.58;40.70;;;9.70;1.00;;;;;;5041035;28;20030;-48
2023/02/14 03:05:28;;;;;;;57.60;39.35;;;9.60;1.00;;;;;;5035777;28;20095;-48
2023/02/14 03:07:54;;;;;;;66.33;40.63;;;9.50;1.00;;;;;;5032578;28;20539;-48
2023/02/14 03:10:25;;;;;;;52.83;38.27;;;9.60;1.00;;;;;;5031238;28;20030;-47
2023/02/14 03:13:09;;;;;;;59.90;39.43;;;9.50;1.00;;;;;;5038562;28;20030;-47
2023/02/14 03:15:44;;;;;;;58.30;39.10;;;9.60;1.00;;;;;;5040271;28;20079;-48
2023/02/14 03:21:44;;;;;;;57.47;39.27;;;9.50;1.00;;;;;;5031441;28;20036;-49
2023/02/14 03:25:04;;;;;;;60.67;40.20;;;9.60;1.00;;;;;;5032966;28;20029;-48
2023/02/14 03:27:51;;;;;;;63.43;41.80;;;9.60;1.00;;;;;;4979550;28;20505;-50
2023/02/14 03:30:35;;;;;;;58.47;39.80;;;9.50;1.00;;;;;;5027589;28;20041;-48
2023/02/14 03:33:07;;;;;;;56.37;39.23;;;9.50;1.00;;;;;;5030119;28;20124;-48
2023/02/14 03:36:30;;;;;;;60.00;39.40;;;9.50;1.00;;;;;;5038036;28;20429;-48
2023/02/14 03:39:17;;;;;;;55.47;38.57;;;9.50;1.00;;;;;;4988600;28;20060;-47
2023/02/14 03:41:54;;;;;;;56.63;39.37;;;9.50;1.00;;;;;;4990287;28;20083;-48
2023/02/14 03:44:27;;;;;;;57.90;38.17;;;9.50;1.00;;;;;;5022786;28;20060;-48
2023/02/14 03:46:57;;;;;;;57.47;39.20;;;9.50;1.00;;;;;;5045503;28;20029;-50
2023/02/14 03:49:28;;;;;;;58.60;39.00;;;9.50;1.00;;;;;;5021421;28;20041;-48
2023/02/14 03:51:56;;;;;;;54.40;38.00;;;9.60;1.00;;;;;;5035737;28;20052;-47
2023/02/14 03:54:23;;;;;;;57.27;38.93;;;9.50;1.00;;;;;;5035211;28;20047;-48
2023/02/14 03:56:55;;;;;;;55.30;37.87;;;9.50;1.00;;;;;;5035119;28;20059;-48
2023/02/14 03:59:26;;;;;;;57.23;39.20;;;9.50;1.00;;;;;;5036375;28;20041;-49
2023/02/14 04:02:15;;;;;;;60.60;38.83;;;9.50;1.00;;;;;;5033269;28;20029;-48
2023/02/14 04:04:48;;;;;;;54.20;39.20;;;9.50;1.00;;;;;;5034193;28;22025;-49
2023/02/14 04:07:19;;;;;;;58.03;38.57;;;9.40;1.00;;;;;;5029556;28;20041;-49
2023/02/14 04:09:45;;;;;;;59.43;39.60;;;9.40;1.00;;;;;;5043074;28;20128;-48
2023/02/14 04:12:12;;;;;;;60.87;42.17;;;9.40;1.00;;;;;;5037045;28;20108;-48
2023/02/14 04:14:38;;;;;;;53.43;38.17;;;9.40;1.00;;;;;;5036763;28;20163;-47
2023/02/14 04:19:48;;;;;;;61.17;38.90;;;9.40;1.00;;;;;;5027417;28;20505;-49
2023/02/14 04:22:14;;;;;;;57.63;39.57;;;9.40;1.00;;;;;;5036843;28;20029;-47
2023/02/14 04:24:40;;;;;;;53.77;36.93;;;9.40;1.00;;;;;;5035066;28;20095;-48
2023/02/14 04:27:11;;;;;;;55.90;37.87;;;9.40;1.00;;;;;;5033741;28;20033;-48
2023/02/14 04:29:40;;;;;;;55.73;37.73;;;9.40;1.00;;;;;;5031672;28;20037;-48
2023/02/14 04:32:12;;;;;;;55.47;38.60;;;9.40;1.00;;;;;;5031844;28;20022;-47
2023/02/14 04:34:38;;;;;;;52.40;38.90;;;9.40;1.00;;;;;;5037750;28;20044;-48
2023/02/14 04:37:04;;;;;;;54.27;36.80;;;9.30;1.00;;;;;;5036572;28;20017;-47
2023/02/14 04:39:30;;;;;;;54.20;38.03;;;9.30;1.00;;;;;;5041299;28;21050;-48
2023/02/14 04:41:56;;;;;;;60.70;40.17;;;9.30;1.00;;;;;;5032627;28;20054;-48
2023/02/14 04:44:22;;;;;;;51.53;37.63;;;9.30;1.00;;;;;;5039412;28;20033;-48
2023/02/14 04:46:48;;;;;;;56.00;39.50;;;9.30;1.00;;;;;;5039256;28;20013;-48
2023/02/14 04:49:13;;;;;;;57.93;39.33;;;9.30;1.00;;;;;;5033404;28;20033;-50
2023/02/14 04:51:39;;;;;;;53.33;38.07;;;9.30;1.00;;;;;;5036315;28;20026;-51
2023/02/14 04:54:05;;;;;;;58.47;40.40;;;9.30;1.00;;;;;;5036803;28;20057;-47
2023/02/14 04:56:31;;;;;;;55.97;38.30;;;9.30;1.00;;;;;;5042583;28;20068;-48
2023/02/14 04:58:57;;;;;;;61.10;37.93;;;9.10;1.00;;;;;;5037915;28;20029;-47
2023/02/14 05:01:22;;;;;;;57.60;39.37;;;9.20;1.00;;;;;;5043369;28;20053;-48
2023/02/14 05:03:48;;;;;;;58.27;38.37;;;9.20;1.00;;;;;;5046740;28;20025;-49
2023/02/14 05:06:14;;;;;;;56.53;39.97;;;9.20;1.00;;;;;;5033148;28;20317;-49
2023/02/14 05:08:39;;;;;;;53.60;37.50;;;9.20;1.00;;;;;;5041103;28;20025;-48
2023/02/14 05:11:06;;;;;;;56.23;37.07;;;9.10;1.00;;;;;;5040796;28;20045;-48
2023/02/14 05:13:32;;;;;;;58.30;36.60;;;9.00;1.00;;;;;;5047421;28;20537;-48
2023/02/14 05:15:58;;;;;;;55.37;37.53;;;9.00;1.00;;;;;;5035637;28;20537;-48
2023/02/14 05:18:24;;;;;;;53.37;36.60;;;9.00;1.00;;;;;;5035339;28;20033;-48
2023/02/14 05:20:54;;;;;;;52.50;36.80;;;9.00;1.00;;;;;;5039326;28;20035;-49
2023/02/14 05:23:20;;;;;;;52.17;38.17;;;9.00;1.00;;;;;;5035840;28;20372;-49
2023/02/14 05:25:50;;;;;;;56.67;37.93;;;9.00;1.00;;;;;;5037644;28;20025;-48
2023/02/14 05:28:18;;;;;;;54.63;37.57;;;8.90;1.00;;;;;;5043529;28;20536;-48
2023/02/14 05:30:44;;;;;;;55.23;38.17;;;9.00;1.00;;;;;;5036578;28;20025;-48
2023/02/14 05:33:09;;;;;;;52.73;37.33;;;9.00;1.00;;;;;;5038645;28;20033;-47
2023/02/14 05:35:35;;;;;;;57.70;39.00;;;9.00;1.00;;;;;;5031850;28;20603;-47
2023/02/14 05:38:01;;;;;;;57.93;40.80;;;9.00;1.00;;;;;;5044456;28;20056;-50
2023/02/14 05:40:27;;;;;;;55.67;38.80;;;8.90;1.00;;;;;;5031352;28;20033;-48
2023/02/14 05:42:54;;;;;;;56.10;39.53;;;8.90;1.00;;;;;;5024597;28;20057;-49
2023/02/14 05:45:20;;;;;;;56.87;38.47;;;8.80;1.00;;;;;;5044104;28;20029;-49
2023/02/14 05:48:12;;;;;;;55.03;37.47;;;8.80;1.00;;;;;;5048348;28;20489;-48
2023/02/14 05:50:37;;;;;;;48.10;35.60;;;8.80;1.00;;;;;;5034122;28;20021;-48
2023/02/14 05:53:03;;;;;;;54.70;37.57;;;8.80;1.00;;;;;;5033227;28;20108;-48
2023/02/14 05:55:29;;;;;;;54.43;37.50;;;8.80;1.00;;;;;;5042842;28;20036;-48
2023/02/14 05:57:55;;;;;;;56.53;38.00;;;8.80;1.00;;;;;;5033805;28;20029;-48
2023/02/14 06:00:22;;;;;;;54.33;36.83;;;8.80;1.00;;;;;;5037036;28;20041;-47
2023/02/14 06:02:48;;;;;;;59.33;37.93;;;8.70;1.00;;;;;;5026872;28;20029;-49
2023/02/14 06:05:16;;;;;;;53.17;38.57;;;8.80;1.00;;;;;;5037170;28;20049;-48
2023/02/14 06:07:44;;;;;;;55.80;39.53;;;8.70;1.00;;;;;;5032858;28;20026;-48
2023/02/14 06:10:11;;;;;;;54.43;38.17;;;8.70;1.00;;;;;;5036125;28;20379;-48
2023/02/14 06:12:37;;;;;;;56.50;38.70;;;8.60;1.00;;;;;;5040162;28;20432;-49
2023/02/14 06:15:03;;;;;;;60.13;39.27;;;8.60;1.00;;;;;;5038391;28;20118;-51
2023/02/14 06:17:28;;;;;;;59.43;39.27;;;8.50;1.00;;;;;;5039348;28;20029;-52
2023/02/14 06:19:54;;;;;;;55.77;38.57;;;8.50;1.00;;;;;;5032808;28;20071;-49
2023/02/14 06:22:20;;;;;;;57.37;40.17;;;8.50;1.00;;;;;;5034206;28;20025;-48
2023/02/14 06:24:45;;;;;;;63.10;40.37;;;8.50;1.00;;;;;;5032635;28;20029;-48
2023/02/14 06:27:11;;;;;;;61.13;41.00;;;8.50;1.00;;;;;;5035508;28;20043;-48
2023/02/14 06:29:37;;;;;;;60.07;40.83;;;8.50;1.00;;;;;;5034580;28;20362;-47
2023/02/14 06:32:05;;;;;;;63.37;41.70;;;8.40;1.00;;;;;;5040527;28;20591;-48
2023/02/14 06:34:32;;;;;;;62.00;39.43;;;8.40;1.00;;;;;;5036135;28;20045;-49
2023/02/14 06:36:58;;;;;;;66.63;42.63;;;8.40;1.00;;;;;;5032386;28;20021;-48
2023/02/14 06:39:23;;;;;;;64.13;41.87;;;8.30;1.00;;;;;;5045801;28;20040;-48
2023/02/14 06:41:49;;;;;;;58.33;39.00;;;8.30;1.00;;;;;;5033424;28;20171;-48
2023/02/14 06:44:15;;;;;;;64.47;41.57;;;8.30;1.00;;;;;;5040508;28;20034;-50
2023/02/14 06:46:40;;;;;;;60.10;41.87;;;8.30;1.00;;;;;;5038094;28;20032;-49
2023/02/14 06:49:06;;;;;;;66.20;42.33;;;8.30;1.00;;;;;;5032242;28;20025;-48
2023/02/14 06:51:32;;;;;;;58.80;40.30;;;8.20;1.00;;;;;;5034929;28;20040;-48
2023/02/14 06:53:57;;;;;;;62.73;41.87;;;8.20;1.00;;;;;;5033471;28;21004;-50
2023/02/14 06:56:23;;;;;;;66.03;42.60;;;8.20;1.00;;;;;;5041512;28;20021;-50
2023/02/14 06:58:48;;;;;;;62.23;42.73;;;8.20;1.00;;;;;;5034647;28;20033;-48
2023/02/14 07:01:14;;;;;;;61.97;40.30;;;8.20;1.00;;;;;;5028749;28;20029;-47
2023/02/14 07:03:40;;;;;;;60.30;42.27;;;8.30;1.00;;;;;;5028693;28;20036;-49
2023/02/14 07:06:06;;;;;;;62.53;41.50;;;8.20;1.00;;;;;;5043621;28;20076;-48
2023/02/14 07:08:32;;;;;;;63.33;42.70;;;8.20;1.00;;;;;;5039638;28;20025;-48
2023/02/14 07:10:58;;;;;;;67.60;43.90;;;8.20;1.00;;;;;;5041659;28;20074;-47
2023/02/14 07:13:24;;;;;;;70.10;43.27;;;8.20;1.00;;;;;;5040593;28;20487;-48
2023/02/14 07:15:49;;;;;;;63.23;43.03;;;8.30;1.00;;;;;;5030494;28;20025;-47
2023/02/14 07:18:15;;;;;;;64.93;44.40;;;8.20;1.00;;;;;;5048043;28;20028;-51
2023/02/14 07:20:41;;;;;;;65.07;43.73;;;8.20;1.00;;;;;;5036717;28;20090;-49
2023/02/14 07:23:07;;;;;;;68.40;44.70;;;8.30;1.00;;;;;;5039721;28;20100;-48
2023/02/14 07:25:33;;;;;;;63.57;41.93;;;8.30;1.00;;;;;;5035999;28;20025;-50
2023/02/14 07:27:58;;;;;;;62.67;42.27;;;8.20;1.00;;;;;;5030196;28;20374;-51
2023/02/14 07:30:24;;;;;;;67.57;41.43;;;8.20;1.00;;;;;;5031951;28;20036;-50
2023/02/14 07:32:50;;;;;;;64.17;42.20;;;8.30;1.00;;;;;;5030736;28;20060;-48
2023/02/14 07:35:15;;;;;;;63.70;42.87;;;8.30;1.00;;;;;;5023573;28;20041;-48
2023/02/14 07:37:41;;;;;;;61.20;40.13;;;8.40;1.00;;;;;;5031505;28;20032;-50
2023/02/14 07:40:07;;;;;;;62.97;41.57;;;8.40;1.00;;;;;;5031350;28;20092;-47
2023/02/14 07:42:33;;;;;;;62.60;41.63;;;8.40;1.00;;;;;;5031809;28;20021;-47
2023/02/14 07:44:58;;;;;;;63.93;40.83;;;8.40;1.00;;;;;;5038965;28;20474;-47
2023/02/14 07:47:24;;;;;;;61.70;40.53;;;8.50;1.00;;;;;;5030307;28;20036;-47
2023/02/14 07:49:50;;;;;;;59.53;40.57;;;8.50;1.00;;;;;;5029458;28;20069;-48
2023/02/14 07:52:16;;;;;;;61.47;41.70;;;8.40;1.00;;;;;;5022834;28;20025;-48
2023/02/14 07:54:42;;;;;;;68.23;41.53;;;8.50;1.00;;;;;;5031593;28;20069;-48
2023/02/14 07:57:08;;;;;;;69.13;42.30;;;8.60;1.00;;;;;;5022714;28;20542;-51
2023/02/14 07:59:34;;;;;;;58.80;41.17;;;8.60;1.00;;;;;;5034048;28;20124;-50
2023/02/14 08:02:00;;;;;;;63.77;41.37;;;8.70;1.00;;;;;;5026674;28;20021;-48
2023/02/14 08:04:26;;;;;;;62.53;39.57;;;8.70;1.00;;;;;;5030988;28;20118;-62
2023/02/14 08:06:53;;;;;;;64.37;38.80;;;8.70;1.00;;;;;;5031097;28;20017;-60
2023/02/14 08:09:25;;;;;;;66.10;42.07;;;8.80;1.00;;;;;;5040165;28;20056;-58
2023/02/14 08:14:36;;;;;;;55.93;37.53;;;8.80;1.00;;;;;;5030028;28;20051;-53
2023/02/14 08:17:02;;;;;;;59.20;37.17;;;8.70;1.00;;;;;;5030926;28;20515;-56
2023/02/14 08:19:29;;;;;;;61.43;40.70;;;8.80;1.00;;;;;;5030468;28;20463;-56
2023/02/14 08:21:55;;;;;;;61.97;39.53;;;9.00;1.00;;;;;;5030657;28;20439;-54
2023/02/14 08:24:20;;;;;;;66.13;42.63;;;9.00;1.00;;;;;;5030023;28;20037;-55
2023/02/14 08:26:46;;;;;;;63.73;43.87;;;9.10;1.00;;;;;;5030715;28;20040;-48
2023/02/14 08:29:12;;;;;;;64.23;43.03;;;9.10;1.00;;;;;;5030226;28;20045;-48
2023/02/14 08:31:38;;;;;;;72.27;44.47;;;9.10;1.00;;;;;;5031998;28;20207;-48
2023/02/14 08:34:04;;;;;;;66.93;44.87;;;9.10;1.00;;;;;;5031330;28;20383;-49
2023/02/14 08:36:30;;;;;;;70.60;45.77;;;9.20;1.00;;;;;;5033113;28;20049;-51
2023/02/14 08:38:56;;;;;;;65.67;43.27;;;9.20;1.00;;;;;;5031300;28;20041;-49
2023/02/14 08:41:22;;;;;;;62.40;42.77;;;9.30;1.00;;;;;;5030759;28;20064;-50
2023/02/14 08:43:49;;;;;;;61.43;41.03;;;9.30;1.00;;;;;;5032881;28;20044;-56
2023/02/14 08:46:15;;;;;;;58.47;39.77;;;9.20;1.00;;;;;;5033285;28;20017;-58
2023/02/14 08:48:42;;;;;;;60.70;39.47;;;9.30;1.00;;;;;;5034040;28;20029;-53
2023/02/14 08:51:11;;;;;;;60.43;41.13;;;9.30;1.00;;;;;;5032560;28;20022;-55
2023/02/14 08:53:38;;;;;;;55.83;39.97;;;9.30;1.00;;;;;;5032373;28;20047;-55
2023/02/14 08:56:06;;;;;;;58.90;39.63;;;9.40;1.00;;;;;;5033897;28;20459;-58
2023/02/14 08:58:32;;;;;;;59.57;40.10;;;9.40;1.00;;;;;;5032233;28;20103;-57
2023/02/14 09:00:58;;;;;;;58.27;38.93;;;9.50;1.00;;;;;;5032290;28;20021;-50
2023/02/14 09:03:24;;;;;;;60.90;39.07;;;9.40;1.00;;;;;;5033958;28;20022;-54
2023/02/14 09:05:49;;;;;;;60.00;37.90;;;9.50;1.00;;;;;;5033445;28;20128;-50
2023/02/14 09:08:15;;;;;;;61.13;40.17;;;9.60;1.00;;;;;;5024107;28;20104;-55
2023/02/14 09:10:41;;;;;;;58.23;39.50;;;9.60;1.00;;;;;;5032444;28;20033;-50
2023/02/14 09:13:06;;;;;;;55.47;39.93;;;9.60;1.00;;;;;;5033622;28;20033;-51
2023/02/14 09:15:32;;;;;;;60.30;38.90;;;9.70;1.00;;;;;;5033586;28;20083;-55
2023/02/14 09:17:58;;;;;;;58.57;38.17;;;9.80;1.00;;;;;;5033411;28;20048;-54
2023/02/14 09:20:23;;;;;;;53.93;37.27;;;9.70;1.00;;;;;;5033520;28;20025;-57
2023/02/14 09:22:49;;;;;;;60.70;36.23;;;9.70;1.00;;;;;;5032345;28;20033;-50
2023/02/14 09:25:16;;;;;;;52.50;35.20;;;9.70;1.00;;;;;;5033543;28;20029;-50
2023/02/14 09:27:42;;;;;;;57.07;35.90;;;9.70;1.00;;;;;;5027495;28;20034;-54
2023/02/14 09:30:09;;;;;;;56.40;35.37;;;9.90;1.00;;;;;;5033449;28;20087;-60
2023/02/14 09:32:34;;;;;;;52.87;34.70;;;9.90;1.00;;;;;;5039970;28;20364;-53
2023/02/14 09:40:32;;;;;;;48.25;33.13;;;10.00;1.00;;;;;;5040914;28;20028;-50
2023/02/14 09:43:22;;;;;;;50.67;33.13;;;10.10;1.00;;;;;;5030871;28;20550;-47
2023/02/14 09:45:54;;;;;;;49.57;31.50;;;10.10;1.00;;;;;;5033119;28;20109;-49
2023/02/14 09:48:26;;;;;;;47.27;31.07;;;10.20;1.00;;;;;;5033466;28;20033;-56
2023/02/14 09:50:55;;;;;;;49.70;32.40;;;10.20;1.00;;;;;;5032596;28;20029;-55
2023/02/14 09:53:31;;;;;;;51.00;32.73;;;10.30;1.00;;;;;;5031136;28;20510;-72
2023/02/14 09:56:18;;;;;;;48.77;32.43;;;10.20;1.00;;;;;;5041120;28;20036;-56
2023/02/14 09:58:52;;;;;;;50.28;33.75;;;10.30;1.00;;;;;;5042347;28;20035;-62
2023/02/14 10:01:40;;;;;;;52.05;33.28;;;10.40;1.00;;;;;;5031117;28;20036;-65
2023/02/14 10:04:15;;;;;;;50.37;32.57;;;10.50;1.00;;;;;;5039785;28;20037;-49
2023/02/14 10:06:52;;;;;;;54.13;35.07;;;10.50;1.00;;;;;;5035714;28;20363;-58
2023/02/14 10:09:41;;;;;;;54.73;34.30;;;10.50;1.00;;;;;;5034455;28;20483;-57
2023/02/14 10:12:19;;;;;;;54.10;35.05;;;10.60;1.00;;;;;;5038357;28;20118;-58
2023/02/14 10:14:46;;;;;;;51.60;34.78;;;10.50;1.00;;;;;;5033780;28;20037;-58
2023/02/14 10:17:20;;;;;;;53.08;33.95;;;10.60;1.00;;;;;;5041098;28;20025;-55
2023/02/14 10:19:53;;;;;;;57.15;35.45;;;10.70;1.00;;;;;;5033816;28;20439;-57
2023/02/14 10:22:22;;;;;;;54.72;36.35;;;10.70;1.00;;;;;;5031710;28;20109;-51
2023/02/14 10:24:50;;;;;;;55.83;35.30;;;10.80;1.00;;;;;;5037255;28;20402;-55
2023/02/14 10:27:36;;;;;;;58.70;36.63;;;10.90;1.00;;;;;;5033653;28;20017;-51
2023/02/14 10:30:09;;;;;;;52.53;35.20;;;10.90;1.00;;;;;;5043110;28;20030;-51
2023/02/14 10:32:55;;;;;;;52.27;33.37;;;10.90;1.00;;;;;;5033240;28;20029;-59
2023/02/14 10:35:39;;;;;;;;;;;11.00;1.00;;;;;;5032036;28;20296;-53
2023/02/14 10:38:19;;;;;;;51.67;33.30;;;11.00;1.00;;;;;;5029054;28;19962;-51
2023/02/14 10:40:48;;;;;;;55.17;32.38;;;11.10;1.00;;;;;;5039745;28;20021;-51
2023/02/14 10:43:32;;;;;;;52.72;32.58;;;11.10;1.00;;;;;;5044404;28;20453;-49
2023/02/14 10:46:12;;;;;;;51.80;32.53;;;11.20;1.00;;;;;;5038348;28;20029;-48
2023/02/14 10:48:59;;;;;;;52.65;32.60;;;11.20;1.00;;;;;;5032025;28;20146;-51
2023/02/14 10:51:45;;;;;;;53.10;33.83;;;11.30;1.00;;;;;;5020410;28;20076;-48
2023/02/14 10:54:37;;;;;;;53.38;32.22;;;11.40;1.00;;;;;;5031897;28;20046;-48
2023/02/14 10:57:06;;;;;;;52.33;32.95;;;11.40;1.00;;;;;;5026297;28;20112;-49
2023/02/14 10:59:58;;;;;;;54.72;34.33;;;11.50;1.00;;;;;;5032015;28;20310;-49
2023/02/14 11:02:35;;;;;;;54.22;33.78;;;11.50;1.00;;;;;;5032528;28;20630;-48
2023/02/14 11:05:03;;;;;;;54.53;34.33;;;11.50;1.00;;;;;;5033473;28;20526;-50
2023/02/14 11:07:43;;;;;;;55.08;35.42;;;11.60;1.00;;;;;;5032556;28;20059;-48
2023/02/14 11:10:12;;;;;;;50.28;32.17;;;11.70;1.00;;;;;;5039966;28;20509;-60
2023/02/14 11:12:40;;;;;;;57.15;35.55;;;11.80;1.00;;;;;;5034659;28;20075;-50
2023/02/14 11:15:24;;;;;;;54.05;34.28;;;11.80;1.00;;;;;;5036520;28;20025;-61
2023/02/14 11:18:06;;;;;;;56.17;34.28;;;11.90;1.00;;;;;;5024804;28;20382;-53
2023/02/14 11:20:32;;;;;;;52.55;34.63;;;11.90;1.00;;;;;;5031080;28;20017;-54
2023/02/14 11:22:58;;;;;;;53.38;34.00;;;12.00;1.00;;;;;;5031648;28;20034;-54
2023/02/14 11:25:27;;;;;;;52.10;33.65;;;11.90;1.00;;;;;;5043594;28;20100;-52
2023/02/14 11:28:03;;;;;;;52.80;33.65;;;12.00;1.00;;;;;;5030443;28;20113;-54
2023/02/14 11:30:38;;;;;;;53.65;35.42;;;12.10;1.00;;;;;;5030654;28;20037;-60
2023/02/14 11:33:05;;;;;;;52.65;34.80;;;12.10;1.00;;;;;;5029934;28;20502;-51
2023/02/14 11:35:35;;;;;;;53.17;34.88;;;12.10;1.00;;;;;;5034217;28;20060;-49
2023/02/14 11:38:04;;;;;;;55.05;36.03;;;12.20;1.00;;;;;;5035218;28;20468;-51
2023/02/14 11:40:34;;;;;;;53.92;33.08;;;12.20;1.00;;;;;;5035899;28;20151;-49
2023/02/14 11:43:17;;;;;;;55.97;35.85;;;12.30;1.00;;;;;;5032050;28;20429;-50
2023/02/14 11:45:45;;;;;;;53.30;33.22;;;12.40;1.00;;;;;;5037957;28;20033;-50
2023/02/14 11:48:17;;;;;;;55.70;34.55;;;12.40;1.00;;;;;;5026019;28;20519;-53
2023/02/14 11:50:59;;;;;;;57.03;36.05;;;12.50;1.00;;;;;;5034016;28;20021;-50
2023/02/14 11:53:28;;;;;;;57.20;34.92;;;12.40;1.00;;;;;;5031091;28;20041;-50
2023/02/14 11:55:56;;;;;;;51.83;33.70;;;12.50;1.00;;;;;;5036470;28;20116;-56
2023/02/14 11:58:46;;;;;;;60.33;35.83;;;12.50;1.00;;;;;;5038005;28;20033;-61
2023/02/14 12:01:24;;;;;;;52.83;34.85;;;12.60;1.00;;;;;;5022156;28;20072;-61
2023/02/14 12:03:51;;;;;;;53.78;34.08;;;12.60;1.00;;;;;;5042546;28;20753;-57
2023/02/14 12:06:25;;;;;;;54.35;35.58;;;12.80;1.00;;;;;;5033519;28;20133;-57
2023/02/14 12:08:51;;;;;;;55.47;36.25;;;12.80;1.00;;;;;;5039739;28;20108;-52
2023/02/14 12:11:22;;;;;;;54.20;34.88;;;12.90;1.00;;;;;;5033766;28;20032;-60
2023/02/14 12:14:20;;;;;;;56.33;35.03;;;13.00;1.00;;;;;;5039458;28;20033;-51
2023/02/14 12:17:01;;;;;;;56.38;34.33;;;13.00;1.00;;;;;;5031367;28;20033;-48
2023/02/14 12:19:48;;;;;;;53.45;34.85;;;13.00;1.00;;;;;;5040670;28;20116;-53
2023/02/14 12:22:21;;;;;;;51.05;33.50;;;13.10;1.00;;;;;;5033500;28;20040;-52
2023/02/14 12:25:01;;;;;;;53.50;33.88;;;13.10;1.00;;;;;;5038102;28;20025;-46
2023/02/14 12:27:31;;;;;;;56.30;35.83;;;13.20;1.00;;;;;;5043771;28;20032;-45
2023/02/14 12:30:11;;;;;;;52.00;33.90;;;13.20;1.00;;;;;;5036312;28;20033;-46
2023/02/14 12:32:43;;;;;;;54.03;34.67;;;13.30;1.00;;;;;;5037761;28;20097;-57
2023/02/14 12:35:27;;;;;;;52.40;33.83;;;13.40;1.00;;;;;;5031029;28;20033;-56
2023/02/14 12:38:10;;;;;;;52.72;36.40;;;13.40;1.00;;;;;;5029178;28;20056;-55
2023/02/14 12:41:04;;;;;;;55.30;34.92;;;13.50;1.00;;;;;;5037760;28;20030;-56
2023/02/14 12:43:46;;;;;;;54.22;34.78;;;13.40;1.00;;;;;;5046252;28;20025;-56
2023/02/14 12:46:42;;;;;;;54.97;35.47;;;13.50;1.00;;;;;;5042363;28;20059;-54
2023/02/14 12:49:28;;;;;;;68.63;44.30;;;13.60;1.00;;;;;;5042779;28;20036;-55
2023/02/14 12:52:32;;;;;;;59.13;36.50;;;13.70;1.00;;;;;;5032075;28;20038;-54
2023/02/14 12:55:36;;;;;;;54.47;35.60;;;13.70;1.00;;;;;;5024638;28;20032;-52
2023/02/14 12:58:25;;;;;;;63.53;37.60;;;13.70;1.00;;;;;;5042147;28;20429;-54
2023/02/14 13:01:29;;;;;;;52.78;34.38;;;13.80;1.00;;;;;;5047217;28;20112;-55
2023/02/14 13:04:47;;;;;;;49.92;33.60;;;13.80;1.00;;;;;;5034642;28;20410;-55
2023/02/14 13:07:27;;;;;;;53.00;35.47;;;13.90;1.00;;;;;;5033065;28;20182;-55
2023/02/14 13:10:03;;;;;;;55.33;35.92;;;13.90;1.00;;;;;;5039088;28;20181;-55
2023/02/14 13:12:40;;;;;;;53.50;35.15;;;14.00;1.00;;;;;;5036920;28;20036;-54
2023/02/14 13:15:35;;;;;;;58.00;38.20;;;13.90;1.00;;;;;;5037094;28;20041;-56
2023/02/14 13:18:01;;;;;;;;;;;14.10;1.00;;;;;;5024851;28;20056;-56
2023/02/14 13:20:53;;;;;;;57.50;36.20;;;14.10;1.00;;;;;;5032009;28;19941;-56
2023/02/14 13:23:40;;;;;;;65.22;39.72;;;14.10;1.00;;;;;;5024138;28;20032;-55
2023/02/14 13:26:14;;;;;;;57.65;37.17;;;14.20;1.00;;;;;;5027881;28;20065;-56
2023/02/14 13:28:50;;;;;;;57.53;36.43;;;14.30;1.00;;;;;;5045823;28;20017;-64
2023/02/14 13:31:35;;;;;;;58.75;36.90;;;14.30;1.00;;;;;;5023419;28;20276;-63
2023/02/14 13:34:21;;;;;;;58.08;37.17;;;14.30;1.00;;;;;;5033316;28;20174;-64
2023/02/14 13:36:47;;;;;;;59.70;38.00;;;14.40;1.00;;;;;;5032277;28;20108;-65